createdAt,value
2017-07-08T00:00:32.550Z,42.9
2017-07-08T00:01:33.247Z,42.6
2017-07-08T00:02:33.930Z,42.7
2017-07-08T00:03:34.819Z,42.7
2017-07-08T00:04:35.560Z,43.0
2017-07-08T00:05:36.512Z,42.8
2017-07-08T00:06:37.226Z,42.8
2017-07-08T00:07:37.891Z,43.4
2017-07-08T00:08:38.578Z,43.1
2017-07-08T00:09:39.280Z,43.4
2017-07-08T00:10:39.974Z,43.6
2017-07-08T00:11:41.001Z,43.5
2017-07-08T00:12:41.689Z,43.7
2017-07-08T00:13:42.436Z,43.5
2017-07-08T00:14:43.122Z,43.6
2017-07-08T00:15:43.818Z,43.7
2017-07-08T00:16:44.504Z,43.8
2017-07-08T00:17:45.454Z,43.8
2017-07-08T00:18:46.328Z,43.6
2017-07-08T00:19:47.027Z,43.6
2017-07-08T00:20:47.709Z,43.7
2017-07-08T00:21:48.412Z,43.9
2017-07-08T00:22:49.108Z,43.4
2017-07-08T00:23:50.251Z,43.4
2017-07-08T00:24:50.952Z,43.3
2017-07-08T00:25:51.635Z,43.4
2017-07-08T00:26:52.396Z,43.7
2017-07-08T00:27:53.093Z,43.6
2017-07-08T00:28:53.910Z,43.7
2017-07-08T00:29:54.831Z,43.6
2017-07-08T00:30:55.569Z,44.2
2017-07-08T00:31:56.324Z,44.1
2017-07-08T00:32:57.020Z,44.6
2017-07-08T00:33:57.724Z,44.6
2017-07-08T00:34:58.419Z,44.6
2017-07-08T00:35:59.112Z,44.9
2017-07-08T00:37:00.049Z,45.2
2017-07-08T00:38:00.797Z,45.0
2017-07-08T00:39:01.482Z,44.8
2017-07-08T00:40:02.235Z,45.4
2017-07-08T00:41:02.924Z,45.1
2017-07-08T00:42:03.951Z,44.8
2017-07-08T00:43:05.223Z,44.8
2017-07-08T00:44:06.265Z,44.6
2017-07-08T00:45:06.962Z,44.5
2017-07-08T00:46:07.650Z,44.1
2017-07-08T00:47:08.346Z,43.8
2017-07-08T00:48:09.012Z,44.0
2017-07-08T00:49:09.951Z,44.7
2017-07-08T00:50:10.863Z,45.3
2017-07-08T00:51:11.566Z,44.9
2017-07-08T00:52:12.273Z,45.0
2017-07-08T00:53:12.969Z,44.5
2017-07-08T00:54:13.759Z,44.4
2017-07-08T00:55:14.440Z,44.3
2017-07-08T00:56:15.443Z,44.4
2017-07-08T00:57:16.121Z,44.2
2017-07-08T00:58:16.823Z,44.5
2017-07-08T00:59:17.667Z,44.1
2017-07-08T01:00:18.416Z,44.1
2017-07-08T01:01:19.097Z,44.7
2017-07-08T01:02:20.054Z,44.5
2017-07-08T01:03:20.735Z,44.5
2017-07-08T01:04:21.422Z,44.4
2017-07-08T01:05:22.125Z,44.7
2017-07-08T01:06:23.124Z,44.5
2017-07-08T01:07:23.847Z,44.7
2017-07-08T01:08:24.807Z,44.7
2017-07-08T01:09:25.492Z,44.8
2017-07-08T01:10:26.184Z,44.9
2017-07-08T01:11:27.060Z,44.6
2017-07-08T01:12:27.720Z,44.8
2017-07-08T01:13:28.463Z,44.4
2017-07-08T01:14:29.403Z,44.6
2017-07-08T01:15:30.092Z,44.6
2017-07-08T01:16:30.851Z,44.8
2017-07-08T01:17:31.523Z,45.0
2017-07-08T01:18:32.224Z,44.6
2017-07-08T01:19:32.915Z,44.4
2017-07-08T01:20:33.624Z,45.0
2017-07-08T01:21:34.703Z,44.5
2017-07-08T01:22:35.395Z,44.6
2017-07-08T01:23:36.081Z,44.5
2017-07-08T01:24:36.759Z,44.9
2017-07-08T01:25:37.540Z,44.8
2017-07-08T01:26:38.232Z,45.3
2017-07-08T01:27:39.179Z,45.4
2017-07-08T01:28:40.183Z,45.4
2017-07-08T01:29:40.923Z,45.3
2017-07-08T01:30:41.759Z,45.1
2017-07-08T01:31:42.442Z,46.0
2017-07-08T01:32:43.144Z,46.1
2017-07-08T01:33:44.399Z,45.5
2017-07-08T01:34:45.677Z,45.1
2017-07-08T01:35:46.531Z,45.1
2017-07-08T01:36:47.224Z,45.0
2017-07-08T01:37:47.908Z,45.1
2017-07-08T01:38:48.620Z,44.9
2017-07-08T01:39:49.596Z,44.9
2017-07-08T01:40:50.455Z,44.6
2017-07-08T01:41:51.198Z,44.5
2017-07-08T01:42:51.914Z,44.4
2017-07-08T01:43:52.591Z,44.7
2017-07-08T01:44:53.285Z,44.5
2017-07-08T01:45:54.229Z,44.5
2017-07-08T01:46:55.119Z,44.6
2017-07-08T01:47:55.827Z,44.6
2017-07-08T01:48:56.516Z,44.5
2017-07-08T01:49:57.212Z,44.4
2017-07-08T01:50:57.968Z,44.6
2017-07-08T01:51:59.106Z,44.9
2017-07-08T01:52:59.789Z,44.7
2017-07-08T01:54:00.490Z,44.8
2017-07-08T01:55:01.185Z,44.9
2017-07-08T01:56:01.887Z,44.8
2017-07-08T01:57:02.592Z,45.6
2017-07-08T01:58:03.617Z,45.2
2017-07-08T01:59:04.273Z,44.8
2017-07-08T02:00:04.978Z,44.9
2017-07-08T02:01:05.721Z,44.7
2017-07-08T02:02:06.412Z,44.8
2017-07-08T02:03:07.147Z,44.8
2017-07-08T02:04:07.828Z,45.3
2017-07-08T02:05:08.885Z,45.1
2017-07-08T02:06:09.583Z,45.2
2017-07-08T02:07:10.303Z,44.9
2017-07-08T02:08:11.024Z,45.0
2017-07-08T02:09:11.787Z,44.9
2017-07-08T02:10:12.461Z,44.8
2017-07-08T02:11:13.465Z,44.9
2017-07-08T02:12:14.156Z,44.9
2017-07-08T02:13:14.864Z,44.8
2017-07-08T02:14:15.555Z,44.9
2017-07-08T02:15:16.349Z,44.4
2017-07-08T02:16:17.013Z,44.6
2017-07-08T02:17:17.951Z,44.4
2017-07-08T02:18:18.644Z,44.4
2017-07-08T02:19:19.340Z,44.6
2017-07-08T02:20:20.030Z,44.8
2017-07-08T02:21:20.731Z,44.5
2017-07-08T02:22:21.443Z,44.3
2017-07-08T02:23:22.350Z,44.1
2017-07-08T02:24:23.037Z,44.0
2017-07-08T02:25:23.744Z,44.1
2017-07-08T02:26:24.425Z,44.7
2017-07-08T02:27:25.119Z,44.5
2017-07-08T02:28:25.841Z,44.6
2017-07-08T02:29:26.857Z,44.6
2017-07-08T02:30:27.558Z,44.3
2017-07-08T02:31:28.559Z,44.7
2017-07-08T02:32:29.256Z,44.5
2017-07-08T02:33:29.950Z,44.6
2017-07-08T02:34:30.640Z,44.7
2017-07-08T02:35:31.579Z,44.3
2017-07-08T02:36:32.276Z,44.4
2017-07-08T02:37:33.037Z,44.4
2017-07-08T02:38:33.722Z,44.7
2017-07-08T02:39:34.421Z,44.4
2017-07-08T02:40:35.155Z,44.7
2017-07-08T02:41:36.143Z,44.2
2017-07-08T02:42:36.832Z,44.1
2017-07-08T02:43:37.672Z,44.0
2017-07-08T02:44:38.383Z,44.4
2017-07-08T02:45:39.045Z,44.4
2017-07-08T02:46:39.803Z,44.4
2017-07-08T02:47:40.750Z,44.7
2017-07-08T02:48:41.445Z,44.4
2017-07-08T02:49:42.132Z,44.6
2017-07-08T02:50:42.814Z,44.4
2017-07-08T02:51:43.513Z,44.7
2017-07-08T02:52:44.513Z,44.7
2017-07-08T02:53:45.261Z,44.7
2017-07-08T02:54:45.961Z,44.5
2017-07-08T02:55:46.647Z,44.6
2017-07-08T02:56:47.386Z,44.5
2017-07-08T02:57:48.042Z,44.7
2017-07-08T02:58:49.098Z,44.3
2017-07-08T02:59:50.054Z,44.3
2017-07-08T03:00:50.763Z,44.5
2017-07-08T03:01:51.524Z,44.7
2017-07-08T03:02:52.217Z,44.9
2017-07-08T03:03:52.971Z,44.9
2017-07-08T03:04:53.633Z,44.9
2017-07-08T03:05:54.633Z,44.6
2017-07-08T03:06:55.326Z,44.9
2017-07-08T03:07:56.001Z,45.0
2017-07-08T03:08:56.689Z,44.9
2017-07-08T03:09:57.390Z,45.2
2017-07-08T03:10:58.071Z,44.7
2017-07-08T03:11:59.077Z,44.8
2017-07-08T03:12:59.870Z,44.9
2017-07-08T03:14:00.567Z,44.8
2017-07-08T03:15:01.274Z,44.8
2017-07-08T03:16:01.970Z,44.9
2017-07-08T03:17:02.708Z,44.9
2017-07-08T03:18:03.915Z,44.9
2017-07-08T03:19:04.691Z,44.7
2017-07-08T03:20:05.334Z,45.1
2017-07-08T03:21:06.058Z,44.7
2017-07-08T03:22:06.717Z,45.0
2017-07-08T03:23:07.552Z,44.9
2017-07-08T03:24:08.580Z,45.1
2017-07-08T03:25:09.249Z,45.0
2017-07-08T03:26:09.954Z,45.0
2017-07-08T03:27:10.695Z,45.2
2017-07-08T03:28:11.718Z,45.2
2017-07-08T03:29:12.388Z,45.3
2017-07-08T03:30:13.387Z,45.3
2017-07-08T03:31:14.140Z,45.1
2017-07-08T03:32:15.301Z,45.3
2017-07-08T03:33:16.075Z,45.4
2017-07-08T03:34:16.743Z,45.4
2017-07-08T03:35:17.425Z,45.3
2017-07-08T03:36:18.372Z,45.4
2017-07-08T03:37:19.064Z,45.3
2017-07-08T03:38:19.762Z,45.2
2017-07-08T03:39:20.570Z,45.8
2017-07-08T03:40:21.204Z,45.7
2017-07-08T03:41:22.219Z,46.2
2017-07-08T03:42:23.155Z,45.6
2017-07-08T03:43:23.966Z,45.7
2017-07-08T03:44:24.642Z,45.8
2017-07-08T03:45:25.348Z,45.6
2017-07-08T03:46:26.039Z,46.1
2017-07-08T03:47:26.724Z,45.7
2017-07-08T03:48:27.490Z,46.0
2017-07-08T03:49:28.466Z,45.9
2017-07-08T03:50:29.231Z,46.4
2017-07-08T03:51:29.907Z,45.9
2017-07-08T03:52:30.693Z,45.7
2017-07-08T03:53:31.579Z,46.0
2017-07-08T03:54:32.263Z,46.1
2017-07-08T03:55:33.202Z,46.2
2017-07-08T03:56:33.919Z,46.1
2017-07-08T03:57:34.608Z,46.1
2017-07-08T03:58:35.408Z,45.7
2017-07-08T03:59:36.115Z,45.8
2017-07-08T04:00:36.878Z,46.2
2017-07-08T04:01:37.875Z,46.1
2017-07-08T04:02:38.556Z,46.4
2017-07-08T04:03:39.302Z,46.3
2017-07-08T04:04:40.000Z,46.2
2017-07-08T04:05:40.760Z,46.6
2017-07-08T04:06:41.461Z,46.2
2017-07-08T04:07:42.405Z,46.5
2017-07-08T04:08:43.398Z,46.3
2017-07-08T04:09:44.113Z,46.5
2017-07-08T04:10:45.105Z,46.5
2017-07-08T04:11:45.806Z,46.3
2017-07-08T04:12:46.495Z,46.3
2017-07-08T04:13:47.854Z,46.5
2017-07-08T04:14:48.549Z,46.3
2017-07-08T04:15:49.244Z,46.4
2017-07-08T04:16:49.965Z,46.6
2017-07-08T04:17:50.639Z,46.9
2017-07-08T04:18:51.388Z,46.6
2017-07-08T04:19:52.373Z,46.9
2017-07-08T04:20:53.070Z,46.8
2017-07-08T04:21:53.755Z,46.6
2017-07-08T04:22:54.450Z,46.7
2017-07-08T04:23:55.206Z,46.7
2017-07-08T04:24:55.891Z,46.8
2017-07-08T04:25:56.949Z,46.9
2017-07-08T04:26:57.675Z,47.0
2017-07-08T04:27:58.388Z,47.2
2017-07-08T04:28:59.093Z,46.7
2017-07-08T04:29:59.784Z,46.9
2017-07-08T04:31:00.477Z,46.9
2017-07-08T04:32:01.172Z,47.3
2017-07-08T04:33:02.449Z,47.1
2017-07-08T04:34:03.180Z,46.8
2017-07-08T04:35:03.864Z,46.9
2017-07-08T04:36:04.763Z,47.3
2017-07-08T04:37:05.466Z,47.2
2017-07-08T04:38:06.168Z,47.1
2017-07-08T04:39:07.231Z,47.5
2017-07-08T04:40:07.918Z,47.1
2017-07-08T04:41:08.626Z,47.1
2017-07-08T04:42:09.353Z,47.1
2017-07-08T04:43:10.097Z,46.8
2017-07-08T04:44:10.796Z,47.2
2017-07-08T04:45:11.734Z,46.9
2017-07-08T04:46:12.850Z,46.7
2017-07-08T04:47:13.537Z,47.4
2017-07-08T04:48:14.239Z,47.1
2017-07-08T04:49:15.003Z,47.1
2017-07-08T04:50:15.750Z,47.2
2017-07-08T04:51:17.147Z,47.4
2017-07-08T04:52:17.838Z,47.3
2017-07-08T04:53:18.532Z,47.5
2017-07-08T04:54:19.232Z,47.4
2017-07-08T04:55:19.921Z,47.5
2017-07-08T04:56:20.857Z,47.3
2017-07-08T04:57:21.854Z,47.7
2017-07-08T04:58:22.553Z,48.0
2017-07-08T04:59:23.304Z,47.6
2017-07-08T05:00:23.991Z,47.7
2017-07-08T05:01:24.744Z,48.0
2017-07-08T05:02:25.434Z,47.7
2017-07-08T05:03:26.431Z,47.7
2017-07-08T05:04:27.179Z,47.7
2017-07-08T05:05:27.881Z,47.9
2017-07-08T05:06:28.664Z,47.9
2017-07-08T05:07:29.353Z,47.9
2017-07-08T05:08:30.046Z,47.8
2017-07-08T05:09:31.012Z,47.8
2017-07-08T05:10:31.700Z,47.8
2017-07-08T05:11:32.380Z,47.7
2017-07-08T05:12:33.095Z,47.8
2017-07-08T05:13:33.827Z,47.7
2017-07-08T05:14:34.587Z,47.8
2017-07-08T05:15:35.287Z,47.7
2017-07-08T05:16:36.343Z,47.7
2017-07-08T05:17:37.238Z,47.7
2017-07-08T05:18:38.047Z,47.7
2017-07-08T05:19:38.731Z,47.9
2017-07-08T05:20:39.491Z,48.4
2017-07-08T05:21:40.251Z,48.3
2017-07-08T05:22:41.194Z,48.1
2017-07-08T05:23:42.052Z,48.2
2017-07-08T05:24:42.757Z,47.5
2017-07-08T05:25:43.462Z,47.8
2017-07-08T05:26:44.188Z,47.8
2017-07-08T05:27:44.883Z,47.5
2017-07-08T05:28:46.040Z,47.8
2017-07-08T05:29:46.731Z,48.1
2017-07-08T05:30:47.482Z,48.2
2017-07-08T05:31:48.184Z,48.1
2017-07-08T05:32:48.875Z,47.6
2017-07-08T05:33:49.578Z,47.6
2017-07-08T05:34:50.525Z,47.8
2017-07-08T05:35:51.206Z,47.8
2017-07-08T05:36:51.906Z,47.9
2017-07-08T05:37:52.702Z,48.1
2017-07-08T05:38:53.384Z,48.1
2017-07-08T05:39:54.094Z,48.2
2017-07-08T05:40:55.095Z,48.0
2017-07-08T05:41:55.856Z,48.2
2017-07-08T05:42:56.565Z,48.1
2017-07-08T05:43:58.461Z,48.7
2017-07-08T05:44:59.052Z,48.5
2017-07-08T05:45:59.805Z,49.0
2017-07-08T05:47:00.873Z,48.2
2017-07-08T05:48:01.541Z,48.3
2017-07-08T05:49:02.245Z,47.8
2017-07-08T05:50:02.939Z,48.0
2017-07-08T05:51:03.638Z,48.3
2017-07-08T05:52:04.540Z,48.3
2017-07-08T05:53:05.485Z,48.3
2017-07-08T05:54:06.163Z,48.3
2017-07-08T05:55:06.871Z,48.3
2017-07-08T05:56:07.618Z,48.6
2017-07-08T05:57:08.412Z,48.8
2017-07-08T05:58:09.085Z,48.0
2017-07-08T05:59:09.784Z,48.3
2017-07-08T06:00:10.748Z,47.7
2017-07-08T06:01:11.404Z,47.4
2017-07-08T06:02:12.166Z,47.3
2017-07-08T06:03:12.851Z,47.7
2017-07-08T06:04:13.619Z,46.9
2017-07-08T06:05:14.331Z,47.4
2017-07-08T06:06:15.309Z,46.9
2017-07-08T06:07:16.010Z,47.0
2017-07-08T06:08:16.707Z,46.6
2017-07-08T06:09:17.420Z,46.2
2017-07-08T06:10:18.089Z,46.5
2017-07-08T06:11:18.791Z,46.6
2017-07-08T06:12:19.789Z,46.5
2017-07-08T06:13:20.494Z,46.2
2017-07-08T06:14:21.245Z,46.2
2017-07-08T06:15:21.956Z,46.1
2017-07-08T06:16:22.652Z,46.0
2017-07-08T06:17:23.376Z,46.1
2017-07-08T06:18:24.383Z,45.9
2017-07-08T06:19:25.064Z,46.4
2017-07-08T06:20:25.925Z,45.9
2017-07-08T06:21:26.615Z,45.5
2017-07-08T06:22:27.315Z,45.5
2017-07-08T06:23:28.085Z,45.4
2017-07-08T06:24:29.101Z,45.4
2017-07-08T06:25:30.124Z,45.2
2017-07-08T06:26:30.827Z,45.2
2017-07-08T06:27:31.510Z,45.4
2017-07-08T06:28:32.212Z,45.0
2017-07-08T06:29:32.962Z,45.0
2017-07-08T06:30:33.972Z,45.0
2017-07-08T06:31:34.646Z,45.0
2017-07-08T06:32:35.341Z,44.8
2017-07-08T06:33:36.037Z,44.9
2017-07-08T06:34:36.822Z,45.0
2017-07-08T06:35:37.537Z,44.9
2017-07-08T06:36:38.547Z,44.9
2017-07-08T06:37:39.235Z,44.8
2017-07-08T06:38:39.911Z,44.6
2017-07-08T06:39:40.775Z,44.6
2017-07-08T06:40:41.462Z,44.5
2017-07-08T06:41:42.211Z,44.5
2017-07-08T06:42:43.154Z,44.1
2017-07-08T06:43:43.860Z,44.7
2017-07-08T06:44:44.549Z,44.5
2017-07-08T06:45:45.266Z,44.1
2017-07-08T06:46:46.025Z,44.0
2017-07-08T06:47:46.778Z,43.9
2017-07-08T06:48:47.722Z,44.0
2017-07-08T06:49:48.692Z,44.5
2017-07-08T06:50:49.458Z,43.7
2017-07-08T06:51:50.242Z,43.8
2017-07-08T06:52:50.922Z,43.8
2017-07-08T06:53:51.616Z,43.7
2017-07-08T06:54:52.666Z,43.6
2017-07-08T06:55:53.396Z,43.7
2017-07-08T06:56:54.112Z,43.5
2017-07-08T06:57:54.815Z,43.4
2017-07-08T06:58:55.637Z,43.7
2017-07-08T06:59:56.302Z,43.6
2017-07-08T07:00:57.255Z,43.4
2017-07-08T07:01:57.933Z,43.7
2017-07-08T07:02:59.524Z,43.4
2017-07-08T07:04:00.689Z,43.6
2017-07-08T07:05:01.425Z,43.7
2017-07-08T07:06:02.089Z,43.7
2017-07-08T07:07:03.106Z,43.8
2017-07-08T07:08:03.788Z,43.9
2017-07-08T07:09:04.486Z,43.3
2017-07-08T07:10:05.191Z,43.5
2017-07-08T07:11:05.891Z,44.2
2017-07-08T07:12:06.700Z,43.6
2017-07-08T07:13:07.463Z,44.1
2017-07-08T07:14:08.444Z,44.1
2017-07-08T07:15:09.148Z,43.4
2017-07-08T07:16:09.861Z,44.1
2017-07-08T07:17:10.640Z,43.5
2017-07-08T07:18:11.333Z,43.5
2017-07-08T07:19:12.021Z,43.3
2017-07-08T07:20:13.029Z,43.4
2017-07-08T07:21:13.785Z,44.2
2017-07-08T07:22:14.679Z,43.5
2017-07-08T07:23:15.375Z,43.5
2017-07-08T07:24:16.080Z,43.5
2017-07-08T07:25:16.767Z,43.5
2017-07-08T07:26:17.773Z,43.7
2017-07-08T07:27:18.509Z,43.2
2017-07-08T07:28:19.174Z,43.7
2017-07-08T07:29:19.892Z,43.4
2017-07-08T07:30:20.614Z,43.3
2017-07-08T07:31:21.346Z,43.1
2017-07-08T07:32:22.437Z,43.3
2017-07-08T07:33:23.156Z,43.2
2017-07-08T07:34:23.846Z,43.3
2017-07-08T07:35:24.576Z,43.3
2017-07-08T07:36:25.306Z,43.3
2017-07-08T07:37:26.042Z,43.3
2017-07-08T07:38:27.097Z,43.4
2017-07-08T07:39:27.800Z,43.1
2017-07-08T07:40:28.496Z,42.7
2017-07-08T07:41:29.218Z,43.1
2017-07-08T07:42:29.913Z,42.8
2017-07-08T07:43:30.673Z,43.0
2017-07-08T07:44:31.613Z,42.9
2017-07-08T07:45:32.319Z,43.1
2017-07-08T07:46:33.091Z,42.8
2017-07-08T07:47:33.811Z,42.7
2017-07-08T07:48:34.571Z,42.8
2017-07-08T07:49:35.284Z,42.9
2017-07-08T07:50:36.549Z,42.7
2017-07-08T07:51:37.250Z,42.4
2017-07-08T07:52:38.267Z,42.4
2017-07-08T07:53:39.079Z,42.5
2017-07-08T07:54:39.795Z,42.4
2017-07-08T07:55:40.529Z,42.3
2017-07-08T07:56:41.300Z,42.4
2017-07-08T07:57:42.317Z,42.8
2017-07-08T07:58:43.163Z,42.3
2017-07-08T07:59:43.935Z,42.2
2017-07-08T08:00:44.637Z,42.6
2017-07-08T08:01:45.391Z,42.7
2017-07-08T08:02:46.083Z,42.5
2017-07-08T08:03:47.081Z,42.4
2017-07-08T08:04:47.787Z,42.3
2017-07-08T08:05:48.478Z,43.2
2017-07-08T08:06:49.546Z,42.2
2017-07-08T08:07:51.452Z,43.0
2017-07-08T08:08:52.121Z,43.0
2017-07-08T08:09:53.195Z,42.4
2017-07-08T08:10:54.205Z,42.4
2017-07-08T08:11:54.885Z,42.3
2017-07-08T08:12:55.571Z,42.2
2017-07-08T08:13:56.309Z,42.2
2017-07-08T08:14:57.085Z,43.2
2017-07-08T08:15:58.033Z,42.9
2017-07-08T08:16:58.747Z,42.6
2017-07-08T08:17:59.425Z,42.7
2017-07-08T08:19:00.105Z,42.2
2017-07-08T08:20:00.959Z,42.5
2017-07-08T08:21:01.662Z,42.4
2017-07-08T08:22:02.667Z,42.1
2017-07-08T08:23:03.416Z,42.4
2017-07-08T08:24:04.213Z,42.6
2017-07-08T08:25:04.915Z,42.4
2017-07-08T08:26:05.915Z,42.3
2017-07-08T08:27:06.602Z,42.2
2017-07-08T08:28:07.660Z,42.0
2017-07-08T08:29:08.398Z,42.3
2017-07-08T08:30:09.160Z,42.5
2017-07-08T08:31:09.887Z,42.5
2017-07-08T08:32:10.592Z,42.2
2017-07-08T08:33:11.315Z,42.5
2017-07-08T08:34:12.322Z,42.6
2017-07-08T08:35:13.107Z,42.9
2017-07-08T08:36:13.770Z,42.2
2017-07-08T08:37:14.457Z,42.2
2017-07-08T08:38:15.226Z,42.8
2017-07-08T08:39:15.974Z,42.9
2017-07-08T08:40:16.891Z,42.4
2017-07-08T08:41:17.623Z,42.1
2017-07-08T08:42:18.329Z,42.1
2017-07-08T08:43:19.069Z,42.3
2017-07-08T08:44:19.976Z,43.1
2017-07-08T08:45:20.674Z,42.8
2017-07-08T08:46:21.629Z,43.1
2017-07-08T08:47:22.388Z,43.0
2017-07-08T08:48:23.152Z,42.9
2017-07-08T08:49:23.954Z,43.3
2017-07-08T08:50:24.652Z,42.6
2017-07-08T08:51:25.682Z,43.0
2017-07-08T08:52:26.353Z,43.2
2017-07-08T08:53:27.327Z,42.9
2017-07-08T08:54:27.994Z,42.9
2017-07-08T08:55:29.047Z,43.0
2017-07-08T08:56:29.778Z,42.3
2017-07-08T08:57:30.521Z,42.4
2017-07-08T08:58:31.196Z,42.8
2017-07-08T08:59:32.190Z,43.2
2017-07-08T09:00:32.916Z,42.4
2017-07-08T09:01:33.583Z,42.5
2017-07-08T09:02:34.260Z,42.9
2017-07-08T09:03:34.955Z,42.4
2017-07-08T09:04:35.661Z,42.4
2017-07-08T09:05:36.657Z,42.4
2017-07-08T09:06:37.352Z,42.3
2017-07-08T09:07:38.069Z,42.6
2017-07-08T09:08:38.775Z,42.9
2017-07-08T09:09:39.791Z,42.5
2017-07-08T09:10:40.459Z,42.4
2017-07-08T09:11:41.402Z,42.2
2017-07-08T09:12:42.106Z,42.1
2017-07-08T09:13:42.809Z,42.2
2017-07-08T09:14:43.548Z,42.3
2017-07-08T09:15:44.257Z,41.7
2017-07-08T09:16:44.934Z,42.4
2017-07-08T09:17:45.907Z,42.6
2017-07-08T09:18:46.613Z,42.7
2017-07-08T09:19:47.377Z,42.1
2017-07-08T09:20:48.104Z,42.4
2017-07-08T09:21:48.852Z,42.1
2017-07-08T09:22:49.559Z,42.3
2017-07-08T09:23:50.260Z,42.3
2017-07-08T09:24:51.286Z,42.2
2017-07-08T09:25:51.998Z,42.1
2017-07-08T09:26:52.720Z,42.3
2017-07-08T09:27:53.421Z,42.1
2017-07-08T09:28:54.179Z,42.1
2017-07-08T09:29:54.886Z,42.3
2017-07-08T09:30:56.042Z,42.0
2017-07-08T09:31:56.755Z,42.4
2017-07-08T09:32:57.468Z,42.3
2017-07-08T09:33:58.147Z,42.4
2017-07-08T09:34:58.952Z,42.3
2017-07-08T09:35:59.611Z,42.4
2017-07-08T09:37:00.404Z,42.3
2017-07-08T09:38:01.547Z,42.4
2017-07-08T09:39:02.277Z,42.1
2017-07-08T09:40:03.032Z,42.4
2017-07-08T09:41:03.713Z,42.5
2017-07-08T09:42:04.414Z,41.7
2017-07-08T09:43:05.117Z,42.0
2017-07-08T09:44:06.120Z,42.3
2017-07-08T09:45:06.814Z,42.5
2017-07-08T09:46:07.558Z,42.2
2017-07-08T09:47:08.252Z,42.3
2017-07-08T09:48:08.935Z,42.6
2017-07-08T09:49:09.657Z,42.4
2017-07-08T09:50:10.621Z,42.3
2017-07-08T09:51:11.365Z,42.4
2017-07-08T09:52:12.083Z,42.3
2017-07-08T09:53:12.891Z,42.0
2017-07-08T09:54:13.626Z,41.9
2017-07-08T09:55:14.308Z,42.4
2017-07-08T09:56:15.270Z,42.2
2017-07-08T09:57:16.012Z,41.9
2017-07-08T09:58:16.843Z,41.6
2017-07-08T09:59:17.589Z,41.5
2017-07-08T10:00:18.274Z,41.6
2017-07-08T10:01:18.975Z,42.0
2017-07-08T10:02:19.952Z,41.7
2017-07-08T10:03:20.637Z,41.9
2017-07-08T10:04:21.618Z,41.8
2017-07-08T10:05:22.350Z,41.7
2017-07-08T10:06:23.033Z,42.1
2017-07-08T10:07:23.791Z,41.6
2017-07-08T10:08:24.535Z,41.8
2017-07-08T10:09:25.548Z,41.7
2017-07-08T10:10:26.239Z,41.4
2017-07-08T10:11:26.945Z,42.1
2017-07-08T10:12:27.654Z,41.8
2017-07-08T10:13:28.500Z,41.6
2017-07-08T10:14:29.174Z,41.6
2017-07-08T10:15:30.189Z,41.4
2017-07-08T10:16:30.873Z,41.6
2017-07-08T10:17:31.561Z,41.4
2017-07-08T10:18:32.274Z,41.4
2017-07-08T10:19:32.968Z,41.4
2017-07-08T10:20:33.919Z,41.3
2017-07-08T10:21:34.622Z,41.1
2017-07-08T10:22:35.612Z,41.2
2017-07-08T10:23:36.326Z,41.5
2017-07-08T10:24:37.024Z,41.3
2017-07-08T10:25:37.709Z,41.3
2017-07-08T10:26:38.737Z,41.6
2017-07-08T10:27:39.434Z,41.5
2017-07-08T10:28:40.400Z,41.2
2017-07-08T10:29:41.091Z,41.2
2017-07-08T10:30:42.198Z,41.1
2017-07-08T10:31:43.008Z,41.1
2017-07-08T10:32:43.737Z,41.3
2017-07-08T10:33:44.410Z,40.7
2017-07-08T10:34:45.363Z,41.1
2017-07-08T10:35:46.069Z,40.8
2017-07-08T10:36:46.785Z,41.1
2017-07-08T10:37:47.473Z,41.3
2017-07-08T10:38:48.226Z,41.2
2017-07-08T10:39:48.931Z,41.3
2017-07-08T10:40:49.920Z,41.2
2017-07-08T10:41:50.733Z,41.3
2017-07-08T10:42:51.477Z,41.0
2017-07-08T10:43:52.190Z,40.9
2017-07-08T10:44:52.883Z,40.9
2017-07-08T10:45:53.638Z,40.6
2017-07-08T10:46:54.778Z,40.6
2017-07-08T10:47:55.453Z,40.6
2017-07-08T10:48:56.160Z,41.0
2017-07-08T10:49:56.928Z,40.8
2017-07-08T10:50:57.668Z,40.7
2017-07-08T10:51:58.637Z,40.2
2017-07-08T10:52:59.633Z,40.6
2017-07-08T10:54:00.342Z,40.7
2017-07-08T10:55:01.097Z,40.6
2017-07-08T10:56:01.804Z,40.4
2017-07-08T10:57:02.593Z,40.5
2017-07-08T10:58:03.346Z,40.4
2017-07-08T10:59:04.367Z,40.4
2017-07-08T11:00:05.034Z,40.5
2017-07-08T11:01:05.777Z,40.6
2017-07-08T11:02:06.599Z,40.5
2017-07-08T11:03:07.299Z,40.4
2017-07-08T11:04:08.033Z,40.2
2017-07-08T11:05:08.785Z,40.4
2017-07-08T11:06:09.708Z,40.3
2017-07-08T11:07:10.470Z,40.4
2017-07-08T11:08:11.258Z,40.4
2017-07-08T11:09:11.933Z,40.2
2017-07-08T11:10:12.639Z,40.3
2017-07-08T11:11:13.369Z,40.4
2017-07-08T11:12:14.894Z,39.9
2017-07-08T11:13:15.598Z,40.1
2017-07-08T11:14:16.302Z,40.1
2017-07-08T11:15:17.004Z,39.8
2017-07-08T11:16:17.755Z,39.8
2017-07-08T11:17:18.603Z,39.7
2017-07-08T11:18:19.630Z,40.2
2017-07-08T11:19:20.300Z,39.8
2017-07-08T11:20:20.987Z,39.9
2017-07-08T11:21:21.706Z,39.7
2017-07-08T11:22:22.375Z,39.9
2017-07-08T11:23:23.059Z,39.5
2017-07-08T11:24:24.131Z,39.5
2017-07-08T11:25:24.815Z,39.4
2017-07-08T11:26:25.504Z,39.5
2017-07-08T11:27:26.262Z,39.5
2017-07-08T11:28:27.019Z,39.4
2017-07-08T11:29:27.722Z,39.4
2017-07-08T11:30:28.787Z,39.2
2017-07-08T11:31:29.530Z,39.1
2017-07-08T11:32:30.383Z,38.9
2017-07-08T11:33:31.089Z,39.5
2017-07-08T11:34:31.791Z,39.0
2017-07-08T11:35:32.477Z,38.9
2017-07-08T11:36:33.488Z,38.9
2017-07-08T11:37:34.287Z,39.1
2017-07-08T11:38:34.988Z,39.1
2017-07-08T11:39:35.700Z,38.6
2017-07-08T11:40:36.399Z,38.5
2017-07-08T11:41:37.094Z,38.6
2017-07-08T11:42:38.200Z,38.5
2017-07-08T11:43:38.980Z,38.5
2017-07-08T11:44:39.715Z,38.4
2017-07-08T11:45:40.448Z,38.5
2017-07-08T11:46:41.177Z,38.5
2017-07-08T11:47:41.868Z,38.3
2017-07-08T11:48:43.084Z,38.4
2017-07-08T11:49:43.868Z,38.3
2017-07-08T11:50:44.666Z,38.6
2017-07-08T11:51:45.388Z,38.4
2017-07-08T11:52:46.136Z,38.4
2017-07-08T11:53:46.977Z,38.3
2017-07-08T11:54:47.978Z,38.2
2017-07-08T11:55:48.676Z,38.4
2017-07-08T11:56:49.377Z,38.4
2017-07-08T11:57:50.090Z,38.1
2017-07-08T11:58:50.990Z,38.3
2017-07-08T11:59:51.689Z,38.2
2017-07-08T12:00:52.681Z,38.1
2017-07-08T12:01:53.398Z,37.8
2017-07-08T12:02:54.081Z,38.0
2017-07-08T12:03:54.842Z,37.7
2017-07-08T12:04:55.542Z,37.9
2017-07-08T12:05:56.241Z,37.8
2017-07-08T12:06:57.556Z,37.7
2017-07-08T12:07:58.264Z,37.8
2017-07-08T12:08:59.120Z,37.9
2017-07-08T12:09:59.802Z,37.9
2017-07-08T12:11:00.523Z,38.0
2017-07-08T12:12:01.273Z,37.9
2017-07-08T12:13:02.314Z,38.0
2017-07-08T12:14:03.044Z,37.8
2017-07-08T12:15:03.748Z,37.8
2017-07-08T12:16:04.484Z,37.9
2017-07-08T12:17:05.177Z,37.8
2017-07-08T12:18:06.561Z,37.6
2017-07-08T12:19:07.748Z,37.7
2017-07-08T12:20:08.685Z,37.7
2017-07-08T12:21:09.389Z,37.5
2017-07-08T12:22:10.079Z,37.6
2017-07-08T12:23:10.784Z,37.8
2017-07-08T12:24:11.590Z,37.7
2017-07-08T12:25:13.451Z,37.7
2017-07-08T12:26:14.558Z,37.7
2017-07-08T12:27:15.217Z,37.7
2017-07-08T12:28:16.035Z,37.4
2017-07-08T12:29:16.810Z,37.5
2017-07-08T12:30:17.512Z,37.6
2017-07-08T12:31:20.869Z,37.1
2017-07-08T12:32:20.504Z,37.0
2017-07-08T12:33:21.193Z,37.1
2017-07-08T12:34:21.948Z,36.9
2017-07-08T12:35:22.718Z,37.3
2017-07-08T12:36:23.481Z,37.2
2017-07-08T12:37:24.165Z,37.4
2017-07-08T12:38:25.178Z,37.2
2017-07-08T12:39:25.886Z,37.2
2017-07-08T12:40:26.688Z,37.0
2017-07-08T12:41:27.448Z,37.1
2017-07-08T12:42:28.162Z,37.2
2017-07-08T12:43:28.859Z,36.9
2017-07-08T12:44:29.572Z,36.8
2017-07-08T12:45:30.631Z,37.0
2017-07-08T12:46:31.344Z,36.6
2017-07-08T12:47:32.116Z,36.9
2017-07-08T12:48:32.877Z,36.9
2017-07-08T12:49:33.674Z,36.8
2017-07-08T12:50:34.424Z,36.8
2017-07-08T12:51:35.368Z,36.4
2017-07-08T12:52:36.135Z,36.8
2017-07-08T12:53:36.861Z,36.5
2017-07-08T12:54:37.548Z,36.8
2017-07-08T12:55:38.243Z,36.4
2017-07-08T12:56:38.935Z,36.5
2017-07-08T12:57:39.653Z,36.5
2017-07-08T12:58:40.666Z,36.5
2017-07-08T12:59:41.411Z,36.5
2017-07-08T13:00:42.125Z,36.5
2017-07-08T13:01:42.823Z,36.5
2017-07-08T13:02:43.631Z,36.4
2017-07-08T13:03:44.342Z,36.5
2017-07-08T13:04:45.297Z,36.4
2017-07-08T13:05:46.054Z,36.4
2017-07-08T13:06:46.759Z,36.5
2017-07-08T13:07:47.512Z,36.2
2017-07-08T13:08:48.508Z,36.3
2017-07-08T13:09:49.211Z,36.4
2017-07-08T13:10:50.228Z,36.2
2017-07-08T13:11:50.919Z,36.2
2017-07-08T13:12:51.669Z,36.3
2017-07-08T13:13:52.362Z,35.9
2017-07-08T13:14:53.087Z,36.0
2017-07-08T13:15:53.779Z,36.1
2017-07-08T13:16:54.744Z,35.9
2017-07-08T13:17:55.440Z,35.8
2017-07-08T13:18:56.131Z,35.8
2017-07-08T13:19:56.899Z,35.9
2017-07-08T13:20:57.572Z,35.9
2017-07-08T13:21:58.288Z,35.7
2017-07-08T13:22:59.543Z,35.5
2017-07-08T13:24:00.247Z,35.6
2017-07-08T13:25:00.996Z,35.6
2017-07-08T13:26:01.692Z,35.6
2017-07-08T13:27:02.448Z,35.4
2017-07-08T13:28:03.308Z,35.4
2017-07-08T13:29:04.020Z,35.3